Time;durP1;ratioP1;P1;durP2;ratioP2;P2;SDS_P1;SDS_P2;PMS_P1;PMS_P2;Temp;Humidity;BMP_temperature;BMP_pressure;BME280_temperature;BME280_humidity;BME280_pressure;Samples;Min_cycle;Max_cycle;Signal;HPM_P1;HPM_P2
2021/05/24 00:02:24;;;;;;;1999.90;999.90;;;11.40;99.90;;;;;;5056024;28;20701;-44
2021/05/24 00:04:51;;;;;;;1999.90;999.90;;;11.40;99.90;;;;;;5055752;28;20208;-44
2021/05/24 00:07:18;;;;;;;1999.90;999.90;;;11.40;99.90;;;;;;5055710;28;20647;-47
2021/05/24 00:09:44;;;;;;;1999.90;999.90;;;11.40;99.90;;;;;;5055582;28;20206;-48
2021/05/24 00:12:11;;;;;;;1999.90;999.90;;;11.40;99.90;;;;;;5055610;28;20185;-44
2021/05/24 00:14:39;;;;;;;1999.90;999.90;;;11.30;99.90;;;;;;5055529;28;20180;-48
2021/05/24 00:17:07;;;;;;;1999.90;999.90;;;11.40;99.90;;;;;;5055490;28;20539;-48
2021/05/24 00:19:34;;;;;;;1999.90;999.90;;;11.40;99.90;;;;;;5055459;28;20189;-45
2021/05/24 00:22:00;;;;;;;1999.90;999.90;;;11.40;99.90;;;;;;5055752;28;20529;-46
2021/05/24 00:24:27;;;;;;;1999.90;999.90;;;11.40;99.90;;;;;;5055500;28;20303;-43
2021/05/24 00:26:54;;;;;;;1999.90;999.90;;;11.40;99.90;;;;;;5055473;28;20193;-49
2021/05/24 00:29:21;;;;;;;1999.90;999.90;;;11.30;99.90;;;;;;5055058;28;20184;-48
2021/05/24 00:31:48;;;;;;;1999.90;999.90;;;11.20;99.90;;;;;;5054398;28;20182;-43
2021/05/24 00:34:15;;;;;;;1999.90;999.90;;;11.20;99.90;;;;;;5055208;28;20646;-49
2021/05/24 00:36:42;;;;;;;1999.90;999.90;;;11.20;99.90;;;;;;5055120;28;20170;-47
2021/05/24 00:39:09;;;;;;;1999.90;999.90;;;11.20;99.90;;;;;;5055076;28;20171;-45
2021/05/24 00:41:42;;;;;;;1999.90;999.90;;;11.00;99.90;;;;;;5055075;28;20583;-42
2021/05/24 00:44:10;;;;;;;1999.90;999.90;;;11.10;99.90;;;;;;5054963;28;20216;-49
2021/05/24 00:46:37;;;;;;;1999.90;999.90;;;11.10;99.90;;;;;;5054772;28;20225;-47
2021/05/24 00:49:05;;;;;;;1999.90;999.90;;;11.10;99.90;;;;;;5054903;28;20685;-46
2021/05/24 00:51:33;;;;;;;1999.90;999.90;;;11.10;99.90;;;;;;5054810;28;20257;-43
2021/05/24 00:54:01;;;;;;;1999.90;999.90;;;11.10;99.90;;;;;;5054966;28;20212;-45
2021/05/24 00:56:28;;;;;;;1999.90;999.90;;;11.10;99.90;;;;;;5054824;28;20268;-43
2021/05/24 00:58:56;;;;;;;1999.90;999.90;;;11.10;99.90;;;;;;5054731;28;20666;-49
2021/05/24 01:01:23;;;;;;;1999.90;999.90;;;11.20;99.90;;;;;;5054644;28;20526;-45
2021/05/24 01:03:51;;;;;;;1999.90;999.90;;;11.10;99.90;;;;;;5054663;28;20531;-48
2021/05/24 01:06:21;;;;;;;1999.90;999.90;;;11.10;99.90;;;;;;5054500;28;20181;-48
2021/05/24 01:08:48;;;;;;;1999.90;999.90;;;11.10;99.90;;;;;;5054557;28;20218;-44
2021/05/24 01:11:15;;;;;;;1999.90;999.90;;;11.10;99.90;;;;;;5054453;28;20205;-50
2021/05/24 01:13:43;;;;;;;1999.90;999.90;;;11.10;99.90;;;;;;5054405;28;20161;-44
2021/05/24 01:16:10;;;;;;;1999.90;999.90;;;11.00;99.90;;;;;;5054300;28;20184;-47
2021/05/24 01:18:37;;;;;;;1999.90;999.90;;;11.00;99.90;;;;;;5054325;28;20165;-48
2021/05/24 01:21:10;;;;;;;1999.90;999.90;;;11.00;99.90;;;;;;5054367;28;20536;-42
2021/05/24 01:23:43;;;;;;;1999.90;999.90;;;11.00;99.90;;;;;;5054178;28;20532;-46
2021/05/24 01:26:11;;;;;;;1999.90;999.90;;;11.00;99.90;;;;;;5054311;28;20157;-47
2021/05/24 01:28:38;;;;;;;1999.90;999.90;;;11.00;99.90;;;;;;5054148;28;20204;-47
2021/05/24 01:31:06;;;;;;;1999.90;999.90;;;11.00;99.90;;;;;;5054040;28;20232;-45
2021/05/24 01:33:35;;;;;;;1999.90;999.90;;;11.10;99.90;;;;;;5054136;28;20177;-47
2021/05/24 01:36:05;;;;;;;1999.90;999.90;;;11.20;99.90;;;;;;5054166;28;20165;-48
2021/05/24 01:38:34;;;;;;;1999.90;999.90;;;11.30;99.90;;;;;;5054079;28;20169;-43
2021/05/24 01:41:01;;;;;;;1999.90;999.90;;;11.40;99.90;;;;;;5053807;28;20183;-44
2021/05/24 01:43:28;;;;;;;1999.90;999.90;;;11.30;99.90;;;;;;5053876;28;20599;-47
2021/05/24 01:45:56;;;;;;;1999.90;999.90;;;11.40;99.90;;;;;;5053643;28;20234;-48
2021/05/24 01:48:23;;;;;;;1999.90;999.90;;;11.40;99.90;;;;;;5053763;28;20704;-49
2021/05/24 01:50:51;;;;;;;1999.90;999.90;;;11.40;99.90;;;;;;5053705;28;20203;-49
2021/05/24 01:53:19;;;;;;;1999.90;999.90;;;11.40;99.90;;;;;;5053716;28;20161;-44
2021/05/24 01:55:46;;;;;;;1999.90;999.90;;;11.40;99.90;;;;;;5053634;28;20169;-43
2021/05/24 01:58:13;;;;;;;1999.90;999.90;;;11.40;99.90;;;;;;5053647;28;20192;-49
2021/05/24 02:00:41;;;;;;;1999.90;999.90;;;11.30;99.90;;;;;;5053599;28;20169;-47
2021/05/24 02:03:08;;;;;;;1999.90;999.90;;;11.30;99.90;;;;;;5053524;28;20174;-43
2021/05/24 02:05:36;;;;;;;1999.90;999.90;;;11.10;99.90;;;;;;5053598;28;20166;-48
2021/05/24 02:08:04;;;;;;;1999.90;999.90;;;11.10;99.90;;;;;;5053497;28;20200;-48
2021/05/24 02:10:35;;;;;;;1999.90;999.90;;;11.10;99.90;;;;;;5053509;28;20655;-43
2021/05/24 02:13:03;;;;;;;1999.90;999.90;;;11.00;99.90;;;;;;5053408;28;20154;-47
2021/05/24 02:15:32;;;;;;;1999.90;999.90;;;11.10;99.90;;;;;;5053269;28;20252;-47
2021/05/24 02:17:59;;;;;;;1999.90;999.90;;;11.00;99.90;;;;;;5053296;28;20253;-47
2021/05/24 02:20:27;;;;;;;1999.90;999.90;;;11.10;99.90;;;;;;5053232;28;20696;-46
2021/05/24 02:22:56;;;;;;;1999.90;999.90;;;11.10;99.90;;;;;;5053209;28;20162;-49
2021/05/24 02:25:24;;;;;;;1999.90;999.90;;;11.00;99.90;;;;;;5053221;28;20256;-49
2021/05/24 02:27:51;;;;;;;1999.90;999.90;;;11.10;99.90;;;;;;5053085;28;20161;-48
2021/05/24 02:30:20;;;;;;;1999.90;999.90;;;11.10;99.90;;;;;;5053028;28;20203;-47
2021/05/24 02:32:47;;;;;;;1999.90;999.90;;;11.10;99.90;;;;;;5052908;28;20524;-43
2021/05/24 02:35:17;;;;;;;1999.90;999.90;;;11.10;99.90;;;;;;5053005;28;20157;-44
2021/05/24 02:37:45;;;;;;;1999.90;999.90;;;11.10;99.90;;;;;;5052992;28;20219;-45
2021/05/24 02:40:15;;;;;;;1999.90;999.90;;;11.10;99.90;;;;;;5052992;28;20215;-47
2021/05/24 02:42:42;;;;;;;1999.90;999.90;;;11.00;99.90;;;;;;5052944;28;20169;-46
2021/05/24 02:45:11;;;;;;;1999.90;999.90;;;11.10;99.90;;;;;;5052955;28;20165;-47
2021/05/24 02:47:38;;;;;;;1999.90;999.90;;;11.10;99.90;;;;;;5053109;28;20553;-45
2021/05/24 02:50:07;;;;;;;1999.90;999.90;;;11.10;99.90;;;;;;5052675;28;20197;-50
2021/05/24 02:52:35;;;;;;;1999.90;999.90;;;11.10;99.90;;;;;;5052791;28;20176;-43
2021/05/24 02:55:03;;;;;;;1999.90;999.90;;;11.00;99.90;;;;;;5052467;28;20172;-48
2021/05/24 02:57:30;;;;;;;1999.90;999.90;;;11.00;99.90;;;;;;5052699;28;20193;-47
2021/05/24 02:59:56;;;;;;;1999.90;999.90;;;11.00;99.90;;;;;;5052724;28;20205;-49
2021/05/24 03:02:26;;;;;;;1999.90;999.90;;;11.00;99.90;;;;;;5052614;28;20211;-45
2021/05/24 03:04:53;;;;;;;1999.90;999.90;;;10.90;99.90;;;;;;5052694;28;20260;-49
2021/05/24 03:07:21;;;;;;;1999.90;999.90;;;11.00;99.90;;;;;;5052629;28;20172;-50
2021/05/24 03:09:48;;;;;;;1999.90;999.90;;;10.90;99.90;;;;;;5052572;28;20196;-46
2021/05/24 03:12:15;;;;;;;1999.90;999.90;;;10.90;99.90;;;;;;5052645;28;20573;-48
2021/05/24 03:14:42;;;;;;;1999.90;999.90;;;10.90;99.90;;;;;;5052735;28;20169;-47
2021/05/24 03:17:09;;;;;;;1999.90;999.90;;;11.00;99.90;;;;;;5051352;28;20777;-48
2021/05/24 03:19:36;;;;;;;1999.90;999.90;;;11.00;99.90;;;;;;5052671;28;20494;-44
2021/05/24 03:22:03;;;;;;;1999.90;999.90;;;11.10;99.90;;;;;;5052445;28;20177;-45
2021/05/24 03:24:30;;;;;;;1999.90;999.90;;;11.10;99.90;;;;;;5052488;28;20171;-48
2021/05/24 03:26:57;;;;;;;1999.90;999.90;;;11.20;99.90;;;;;;5052507;28;20169;-53
2021/05/24 03:29:24;;;;;;;1999.90;999.90;;;11.20;99.90;;;;;;5052300;28;20264;-43
2021/05/24 03:31:51;;;;;;;1999.90;999.90;;;11.20;99.90;;;;;;5052211;28;20205;-49
2021/05/24 03:34:18;;;;;;;1999.90;999.90;;;11.30;99.90;;;;;;5052390;28;20181;-43
2021/05/24 03:36:45;;;;;;;1999.90;999.90;;;11.30;99.90;;;;;;5052380;28;20201;-46
2021/05/24 03:39:12;;;;;;;1999.90;999.90;;;11.40;99.90;;;;;;5052474;28;20173;-44
2021/05/24 03:41:39;;;;;;;1999.90;999.90;;;11.40;99.90;;;;;;5052311;28;20252;-46
2021/05/24 03:44:06;;;;;;;1999.90;999.90;;;11.50;99.90;;;;;;5052244;28;20166;-43
2021/05/24 03:46:33;;;;;;;1999.90;999.90;;;11.50;99.90;;;;;;5052096;28;20252;-47
2021/05/24 03:49:02;;;;;;;1999.90;999.90;;;11.50;99.90;;;;;;5052261;28;20169;-43
2021/05/24 03:51:29;;;;;;;1999.90;999.90;;;11.50;99.90;;;;;;5052099;28;20205;-46
2021/05/24 03:53:56;;;;;;;1999.90;999.90;;;11.50;99.90;;;;;;5052098;28;20173;-47
2021/05/24 03:56:23;;;;;;;1999.90;999.90;;;11.50;99.90;;;;;;5052231;28;20158;-48
2021/05/24 03:58:50;;;;;;;1999.90;999.90;;;11.50;99.90;;;;;;5052216;28;20165;-43
2021/05/24 04:01:17;;;;;;;1999.90;999.90;;;11.50;99.90;;;;;;5051839;28;20545;-43
2021/05/24 04:03:44;;;;;;;1999.90;999.90;;;11.50;99.90;;;;;;5052265;28;20170;-44
2021/05/24 04:06:14;;;;;;;1999.90;999.90;;;11.60;99.90;;;;;;5054035;28;20591;-48
2021/05/24 04:08:43;;;;;;;1999.90;999.90;;;11.60;99.90;;;;;;5055676;28;20161;-48
2021/05/24 04:11:11;;;;;;;1999.90;999.90;;;11.60;99.90;;;;;;5055468;28;20326;-46
2021/05/24 04:13:40;;;;;;;1999.90;999.90;;;11.60;99.90;;;;;;5055604;28;20184;-46
2021/05/24 04:16:07;;;;;;;1999.90;999.90;;;11.50;99.90;;;;;;5055504;28;20650;-51
2021/05/24 04:18:35;;;;;;;1999.90;999.90;;;11.50;99.90;;;;;;5055331;28;20210;-47
2021/05/24 04:21:03;;;;;;;1999.90;999.90;;;11.40;99.90;;;;;;5055371;28;20181;-47
2021/05/24 04:23:30;;;;;;;1999.90;999.90;;;11.40;99.90;;;;;;5055341;28;20165;-43
2021/05/24 04:25:57;;;;;;;1999.90;999.90;;;11.40;99.90;;;;;;5055382;28;20168;-48
2021/05/24 04:28:24;;;;;;;1999.90;999.90;;;11.40;99.90;;;;;;5055341;28;20248;-49
2021/05/24 04:30:50;;;;;;;1999.90;999.90;;;11.40;99.90;;;;;;5055150;28;20644;-43
2021/05/24 04:33:17;;;;;;;1999.90;999.90;;;11.40;99.90;;;;;;5055259;28;20256;-49
2021/05/24 04:35:44;;;;;;;1999.90;999.90;;;11.40;99.90;;;;;;5055063;28;20169;-42
2021/05/24 04:38:11;;;;;;;1999.90;999.90;;;11.40;99.90;;;;;;5055175;28;20175;-48
2021/05/24 04:40:38;;;;;;;1999.90;999.90;;;11.30;99.90;;;;;;5055040;28;20173;-45
2021/05/24 04:43:05;;;;;;;1999.90;999.90;;;11.30;99.90;;;;;;5055045;28;20173;-45
2021/05/24 04:45:31;;;;;;;1999.90;999.90;;;11.20;99.90;;;;;;5054808;28;20272;-47
2021/05/24 04:47:58;;;;;;;1999.90;999.90;;;11.20;99.90;;;;;;5054952;28;20173;-44
2021/05/24 04:50:25;;;;;;;1999.90;999.90;;;11.20;99.90;;;;;;5054943;28;20236;-50
2021/05/24 04:52:52;;;;;;;1999.90;999.90;;;11.20;99.90;;;;;;5054923;28;20165;-48
2021/05/24 04:55:20;;;;;;;1999.90;999.90;;;11.20;99.90;;;;;;5054882;28;20197;-48
2021/05/24 04:57:47;;;;;;;1999.90;999.90;;;11.20;99.90;;;;;;5054999;28;20169;-45
2021/05/24 05:00:14;;;;;;;1999.90;999.90;;;11.30;99.90;;;;;;5054645;28;20192;-44
2021/05/24 05:02:41;;;;;;;1999.90;999.90;;;11.40;99.90;;;;;;5054495;28;20623;-48
2021/05/24 05:05:10;;;;;;;1999.90;999.90;;;11.30;99.90;;;;;;5054365;28;20553;-44
2021/05/24 05:07:37;;;;;;;1999.90;999.90;;;11.30;99.90;;;;;;5054545;28;20177;-43
2021/05/24 05:10:05;;;;;;;1999.90;999.90;;;11.30;99.90;;;;;;5054327;28;20201;-50
2021/05/24 05:12:32;;;;;;;1999.90;999.90;;;11.30;99.90;;;;;;5054293;28;20181;-48
2021/05/24 05:14:59;;;;;;;1999.90;999.90;;;11.20;99.90;;;;;;5054384;28;20172;-46
2021/05/24 05:17:27;;;;;;;1999.90;999.90;;;11.20;99.90;;;;;;5053964;28;20180;-43
2021/05/24 05:19:54;;;;;;;1999.90;999.90;;;11.20;99.90;;;;;;5054219;28;20651;-47
2021/05/24 05:22:21;;;;;;;1999.90;999.90;;;11.20;99.90;;;;;;5054357;28;20291;-44
2021/05/24 05:24:48;;;;;;;1999.90;999.90;;;11.20;99.90;;;;;;5054026;28;20264;-44
2021/05/24 05:27:14;;;;;;;1999.90;999.90;;;11.20;99.90;;;;;;5054146;28;20545;-49
2021/05/24 05:29:42;;;;;;;1999.90;999.90;;;11.20;99.90;;;;;;5053922;28;20173;-50
2021/05/24 05:32:09;;;;;;;1999.90;999.90;;;11.30;99.90;;;;;;5053978;28;20173;-48
2021/05/24 05:34:35;;;;;;;1999.90;999.90;;;11.30;99.90;;;;;;5053991;28;20220;-48
2021/05/24 05:37:02;;;;;;;1999.90;999.90;;;11.30;99.90;;;;;;5053830;28;20165;-47
2021/05/24 05:39:29;;;;;;;1999.90;999.90;;;11.30;99.90;;;;;;5053849;28;20173;-49
2021/05/24 05:41:56;;;;;;;1999.90;999.90;;;11.40;99.90;;;;;;5053677;28;20753;-48
2021/05/24 05:44:23;;;;;;;1999.90;999.90;;;11.40;99.90;;;;;;5053833;28;20166;-49
2021/05/24 05:46:50;;;;;;;1999.90;999.90;;;11.40;99.90;;;;;;5053308;28;20308;-47
2021/05/24 05:49:16;;;;;;;1999.90;999.90;;;11.50;99.90;;;;;;5053832;28;20174;-46
2021/05/24 05:51:43;;;;;;;1999.90;999.90;;;11.50;99.90;;;;;;5053527;28;20197;-48
2021/05/24 05:54:10;;;;;;;1999.90;999.90;;;11.50;99.90;;;;;;5053231;28;20161;-50
2021/05/24 05:56:37;;;;;;;1999.90;999.90;;;11.60;99.90;;;;;;5053380;28;20169;-43
2021/05/24 05:59:04;;;;;;;1999.90;999.90;;;11.60;99.90;;;;;;5053521;28;20162;-48
2021/05/24 06:01:31;;;;;;;1999.90;999.90;;;11.60;99.90;;;;;;5053366;28;20184;-52
2021/05/24 06:03:58;;;;;;;1999.90;999.90;;;11.60;99.90;;;;;;5052119;28;20181;-51
2021/05/24 06:06:25;;;;;;;1999.90;999.90;;;11.60;99.90;;;;;;5053337;28;20165;-47
2021/05/24 06:08:52;;;;;;;1999.90;999.90;;;11.70;99.90;;;;;;5050069;28;20177;-61
2021/05/24 06:11:20;;;;;;;1999.90;999.90;;;11.80;99.90;;;;;;5048028;28;20216;-52
2021/05/24 06:13:47;;;;;;;1999.90;999.90;;;11.90;99.90;;;;;;5045723;28;20253;-49
2021/05/24 06:16:15;;;;;;;1999.90;999.90;;;12.10;99.90;;;;;;5031939;28;20639;-58
2021/05/24 06:18:42;;;;;;;1999.90;999.90;;;12.10;99.90;;;;;;5042899;28;20181;-58
2021/05/24 06:21:08;;;;;;;1999.90;999.90;;;12.30;99.90;;;;;;5040347;28;20188;-45
2021/05/24 06:23:35;;;;;;;1999.90;999.90;;;12.40;99.90;;;;;;5048092;28;20203;-47
2021/05/24 06:26:04;;;;;;;1999.90;999.90;;;12.50;99.90;;;;;;5049954;28;20184;-44
2021/05/24 06:28:30;;;;;;;1999.90;999.90;;;12.90;99.90;;;;;;5042166;28;20569;-44
2021/05/24 06:30:57;;;;;;;1999.90;999.90;;;13.00;99.90;;;;;;5049739;28;20205;-48
2021/05/24 06:33:24;;;;;;;1999.90;999.90;;;13.00;99.90;;;;;;5050602;28;20283;-45
2021/05/24 06:35:51;;;;;;;1999.90;999.90;;;13.10;99.90;;;;;;5050660;28;20165;-48
2021/05/24 06:38:17;;;;;;;1999.90;999.90;;;13.20;99.90;;;;;;5050085;28;20180;-51
2021/05/24 06:40:44;;;;;;;1999.90;999.90;;;13.30;99.90;;;;;;5048429;28;20421;-49
2021/05/24 06:43:11;;;;;;;1999.90;999.90;;;13.40;99.90;;;;;;5044592;28;20192;-49
2021/05/24 06:45:38;;;;;;;1999.90;999.90;;;13.50;99.90;;;;;;5029520;28;20302;-49
2021/05/24 06:48:05;;;;;;;1999.90;999.90;;;13.60;99.90;;;;;;5032516;28;20647;-47
2021/05/24 06:50:31;;;;;;;1999.90;999.90;;;13.70;99.90;;;;;;5049778;28;20278;-46
2021/05/24 06:52:58;;;;;;;1999.90;999.90;;;13.80;99.90;;;;;;5046598;28;20208;-43
2021/05/24 06:55:25;;;;;;;1999.90;999.90;;;13.90;99.90;;;;;;5037031;28;20192;-45
2021/05/24 06:57:52;;;;;;;1999.90;999.90;;;14.10;99.90;;;;;;5042322;28;20972;-53
2021/05/24 07:00:19;;;;;;;1999.90;999.90;;;14.30;99.90;;;;;;5051349;28;20272;-49
2021/05/24 07:02:47;;;;;;;1999.90;999.90;;;14.40;98.60;;;;;;5049797;28;20172;-55
2021/05/24 07:05:15;;;;;;;1999.90;999.90;;;14.60;99.20;;;;;;5041008;28;20218;-62
2021/05/24 07:07:42;;;;;;;1999.90;999.90;;;14.90;99.90;;;;;;5041856;28;20181;-48
2021/05/24 07:10:09;;;;;;;1999.90;999.90;;;15.10;99.90;;;;;;5045009;28;20296;-47
2021/05/24 07:12:36;;;;;;;1999.90;999.90;;;15.40;99.90;;;;;;5050797;28;20208;-51
2021/05/24 07:15:05;;;;;;;1999.90;999.90;;;15.80;99.60;;;;;;5050394;28;20534;-48
2021/05/24 07:28:28;;;;;;;1999.90;999.90;;;16.10;97.70;;;;;;5054177;28;20552;-51
2021/05/24 07:30:55;;;;;;;1999.90;999.90;;;17.10;94.40;;;;;;5047553;28;20180;-49
2021/05/24 07:33:22;;;;;;;1999.90;999.90;;;17.30;91.80;;;;;;5046478;28;20184;-48
2021/05/24 07:35:49;;;;;;;1999.90;999.90;;;17.50;92.90;;;;;;5047379;28;20211;-55
2021/05/24 07:38:15;;;;;;;1999.90;999.90;;;18.00;93.90;;;;;;5047172;28;20200;-46
2021/05/24 07:40:42;;;;;;;1999.90;999.90;;;18.50;91.60;;;;;;5046820;28;20725;-56
2021/05/24 07:43:09;;;;;;;1999.90;999.90;;;19.10;88.40;;;;;;5048854;28;20173;-45
2021/05/24 07:45:36;;;;;;;1999.90;999.90;;;19.80;80.90;;;;;;5047884;28;20187;-56
2021/05/24 07:48:03;;;;;;;1999.90;999.90;;;20.40;66.80;;;;;;5047401;28;20217;-47
2021/05/24 07:50:30;;;;;;;1999.90;999.90;;;20.80;61.70;;;;;;5048101;28;20176;-51
2021/05/24 07:52:56;;;;;;;1999.90;999.90;;;20.90;60.20;;;;;;5047920;28;20265;-45
2021/05/24 07:55:23;;;;;;;1999.90;999.90;;;21.10;56.80;;;;;;5048405;28;20166;-42
2021/05/24 07:57:50;;;;;;;1999.90;999.90;;;21.30;53.10;;;;;;5047623;28;20240;-53
2021/05/24 08:00:18;;;;;;;1999.90;999.90;;;21.70;51.30;;;;;;5048205;28;20188;-50
2021/05/24 08:02:45;;;;;;;1999.90;999.90;;;21.90;50.90;;;;;;5047745;28;20181;-42
2021/05/24 08:05:14;;;;;;;1999.90;999.90;;;22.30;48.90;;;;;;5047739;28;20632;-47
2021/05/24 08:07:41;;;;;;;1999.90;999.90;;;22.60;48.30;;;;;;5047843;28;20303;-46
2021/05/24 08:10:10;;;;;;;1999.90;999.90;;;22.70;47.50;;;;;;5047479;28;20260;-47
2021/05/24 08:12:39;;;;;;;1999.90;999.90;;;23.20;46.70;;;;;;5047862;28;20201;-44
2021/05/24 08:15:18;;;;;;;1999.90;999.90;;;23.10;44.70;;;;;;5047153;28;20188;-47
2021/05/24 08:17:46;;;;;;;1999.90;999.90;;;23.00;45.50;;;;;;5047611;28;20200;-42
2021/05/24 08:20:14;;;;;;;1999.90;999.90;;;23.00;46.00;;;;;;5047784;28;20170;-43
2021/05/24 08:22:41;;;;;;;1999.90;999.90;;;22.90;46.00;;;;;;5047603;28;20169;-46
2021/05/24 08:25:09;;;;;;;1999.90;999.90;;;22.90;46.00;;;;;;5048050;28;20174;-43
2021/05/24 08:27:36;;;;;;;1999.90;999.90;;;22.90;45.50;;;;;;5043656;28;20214;-43
2021/05/24 08:30:08;;;;;;;1999.90;999.90;;;22.90;45.90;;;;;;5033910;28;20557;-43
2021/05/24 08:32:35;;;;;;;1999.90;999.90;;;22.90;45.50;;;;;;5034779;28;20694;-47
2021/05/24 08:35:02;;;;;;;1999.90;999.90;;;22.80;46.10;;;;;;5034027;28;20166;-44
2021/05/24 08:37:29;;;;;;;1999.90;999.90;;;22.70;47.90;;;;;;5014406;28;20288;-50
2021/05/24 08:39:56;;;;;;;1999.90;999.90;;;22.70;45.60;;;;;;5014033;28;20166;-43
2021/05/24 08:42:29;;;;;;;1999.90;999.90;;;22.60;46.40;;;;;;5014208;28;20220;-43
2021/05/24 08:44:59;;;;;;;1999.90;999.90;;;22.50;48.30;;;;;;5031071;28;20547;-46
2021/05/24 08:47:31;;;;;;;1999.90;999.90;;;22.50;47.60;;;;;;5033792;28;20492;-49
2021/05/24 08:49:58;;;;;;;1999.90;999.90;;;22.60;46.70;;;;;;5033395;28;20237;-53
2021/05/24 08:52:28;;;;;;;1999.90;999.90;;;22.50;47.30;;;;;;5033428;28;20639;-56
2021/05/24 08:54:56;;;;;;;1999.90;999.90;;;22.40;47.60;;;;;;5032353;28;20170;-55
2021/05/24 08:57:23;;;;;;;1999.90;999.90;;;22.30;46.70;;;;;;5033536;28;20202;-51
2021/05/24 08:59:50;;;;;;;1999.90;999.90;;;22.30;47.10;;;;;;5033687;28;20170;-63
2021/05/24 09:02:17;;;;;;;1999.90;999.90;;;22.30;47.50;;;;;;5033688;28;20166;-47
2021/05/24 09:04:45;;;;;;;1999.90;999.90;;;22.30;48.00;;;;;;5033894;28;20173;-50
2021/05/24 09:07:13;;;;;;;1999.90;999.90;;;22.40;48.40;;;;;;5033292;28;20595;-59
2021/05/24 09:09:40;;;;;;;1999.90;999.90;;;22.50;48.80;;;;;;5033692;28;20500;-50
2021/05/24 09:12:19;;;;;;;1999.90;999.90;;;22.50;49.60;;;;;;5033577;28;20158;-58
2021/05/24 09:14:55;;;;;;;1999.90;999.90;;;22.60;48.80;;;;;;5033558;28;20172;-60
2021/05/24 09:17:22;;;;;;;1999.90;999.90;;;22.70;48.60;;;;;;5033489;28;20205;-58
2021/05/24 09:19:49;;;;;;;1999.90;999.90;;;22.90;47.90;;;;;;5033346;28;20196;-66
2021/05/24 09:22:16;;;;;;;1999.90;999.90;;;23.00;50.40;;;;;;5033689;28;20169;-54
2021/05/24 09:24:44;;;;;;;1999.90;999.90;;;23.10;50.90;;;;;;5033605;28;20177;-46
2021/05/24 09:27:25;;;;;;;1999.90;999.90;;;23.30;53.90;;;;;;5031883;28;20221;-47
2021/05/24 09:29:53;;;;;;;1999.90;999.90;;;23.60;53.40;;;;;;5033234;28;20224;-46
2021/05/24 09:32:24;;;;;;;1999.90;999.90;;;23.90;50.80;;;;;;5033652;28;20269;-59
2021/05/24 09:34:53;;;;;;;1999.90;999.90;;;24.10;49.40;;;;;;5033399;28;20229;-62
2021/05/24 09:37:31;;;;;;;1999.90;999.90;;;24.30;48.10;;;;;;5033518;28;20232;-49
2021/05/24 09:39:58;;;;;;;1999.90;999.90;;;24.20;47.40;;;;;;5031974;28;20169;-49
2021/05/24 09:42:25;;;;;;;1999.90;999.90;;;24.20;45.50;;;;;;5033210;28;20193;-65
2021/05/24 09:44:54;;;;;;;1999.90;999.90;;;24.30;46.40;;;;;;5031712;28;20184;-60
2021/05/24 09:47:38;;;;;;;1999.90;999.90;;;24.30;45.90;;;;;;5032194;28;20223;-59
2021/05/24 09:50:13;;;;;;;1999.90;999.90;;;24.10;46.90;;;;;;5025497;28;20632;-60
2021/05/24 09:52:41;;;;;;;1999.90;999.90;;;24.10;47.10;;;;;;5030266;28;20235;-55
2021/05/24 09:55:25;;;;;;;1999.90;999.90;;;24.10;46.90;;;;;;5032538;28;20178;-60
2021/05/24 09:58:06;;;;;;;1999.90;999.90;;;24.20;48.70;;;;;;5013141;28;20198;-56
2021/05/24 10:00:47;;;;;;;1999.90;999.90;;;24.50;47.30;;;;;;5012952;28;20194;-62
2021/05/24 10:03:15;;;;;;;1999.90;999.90;;;24.50;48.70;;;;;;5013327;28;20158;-54
2021/05/24 10:05:46;;;;;;;1999.90;999.90;;;24.40;48.00;;;;;;5013194;28;20221;-54
2021/05/24 10:08:13;;;;;;;1999.90;999.90;;;24.40;49.40;;;;;;5019331;28;20177;-53
2021/05/24 10:10:41;;;;;;;1999.90;999.90;;;24.30;49.90;;;;;;5031371;28;20225;-52
2021/05/24 10:13:09;;;;;;;1999.90;999.90;;;24.30;49.40;;;;;;5031962;28;20162;-54
2021/05/24 10:15:47;;;;;;;1999.90;999.90;;;24.30;51.30;;;;;;5032644;28;20983;-62
2021/05/24 10:18:14;;;;;;;1999.90;999.90;;;24.10;50.60;;;;;;5032553;28;20162;-51
2021/05/24 10:20:40;;;;;;;1999.90;999.90;;;23.90;51.70;;;;;;5032555;28;20170;-58
2021/05/24 10:23:07;;;;;;;1999.90;999.90;;;24.10;52.90;;;;;;5032371;28;20166;-50
2021/05/24 10:25:37;;;;;;;1999.90;999.90;;;24.20;52.40;;;;;;5032496;28;20223;-52
2021/05/24 10:28:06;;;;;;;1999.90;999.90;;;24.40;50.50;;;;;;5032177;28;20256;-64
2021/05/24 10:30:35;;;;;;;1999.90;999.90;;;24.50;47.10;;;;;;5032351;28;20698;-65
2021/05/24 10:33:05;;;;;;;1999.90;999.90;;;24.50;47.80;;;;;;5032523;28;20648;-48
2021/05/24 10:35:46;;;;;;;1999.90;999.90;;;24.30;47.60;;;;;;5032501;28;20157;-62
2021/05/24 10:38:30;;;;;;;1999.90;999.90;;;24.20;47.40;;;;;;5032426;28;20227;-49
2021/05/24 10:41:08;;;;;;;1999.90;999.90;;;23.80;45.70;;;;;;5031992;28;20162;-64
2021/05/24 10:43:45;;;;;;;1999.90;999.90;;;23.60;45.80;;;;;;5032356;28;20173;-66
2021/05/24 10:46:30;;;;;;;1999.90;999.90;;;23.40;46.50;;;;;;5032240;28;20170;-52
2021/05/24 10:49:01;;;;;;;1999.90;999.90;;;23.40;47.50;;;;;;5032332;28;20192;-53
2021/05/24 10:51:53;;;;;;;1999.90;999.90;;;23.30;47.60;;;;;;5031783;28;20660;-56
2021/05/24 10:54:23;;;;;;;1999.90;999.90;;;23.20;49.20;;;;;;5032213;28;20260;-58
2021/05/24 10:57:07;;;;;;;1999.90;999.90;;;23.40;49.60;;;;;;5030552;28;20624;-57
2021/05/24 10:59:43;;;;;;;1999.90;999.90;;;23.50;49.70;;;;;;5032073;28;20162;-57
2021/05/24 11:02:27;;;;;;;1999.90;999.90;;;23.50;48.60;;;;;;5032094;28;20166;-51
2021/05/24 11:05:03;;;;;;;1999.90;999.90;;;23.50;51.00;;;;;;5031948;28;20156;-47
2021/05/24 11:07:42;;;;;;;1999.90;999.90;;;23.50;50.30;;;;;;5031776;28;20628;-57
2021/05/24 11:10:18;;;;;;;1999.90;999.90;;;23.70;49.50;;;;;;5031874;28;20177;-54
2021/05/24 11:12:47;;;;;;;1999.90;999.90;;;23.80;48.50;;;;;;5031596;28;20157;-48
2021/05/24 11:15:14;;;;;;;1999.90;999.90;;;23.90;48.30;;;;;;5032085;28;20255;-49
2021/05/24 11:18:08;;;;;;;1999.90;999.90;;;23.80;45.40;;;;;;5031809;28;20245;-56
2021/05/24 11:20:37;;;;;;;1999.90;999.90;;;23.80;47.00;;;;;;5031508;28;20253;-57
2021/05/24 11:25:59;;;;;;;1999.90;999.90;;;23.80;47.40;;;;;;5031656;28;20154;-54
2021/05/24 11:28:39;;;;;;;1999.90;999.90;;;23.60;47.50;;;;;;5031658;28;20208;-44
2021/05/24 11:31:15;;;;;;;1999.90;999.90;;;23.50;48.00;;;;;;5031698;28;20264;-50
2021/05/24 11:33:48;;;;;;;1999.90;999.90;;;23.40;48.00;;;;;;5031689;28;20646;-44
2021/05/24 11:36:38;;;;;;;1999.90;999.90;;;23.30;47.90;;;;;;5031409;28;20281;-50
2021/05/24 11:39:12;;;;;;;1999.90;999.90;;;23.30;48.10;;;;;;5031531;28;20567;-44
2021/05/24 11:42:01;;;;;;;1999.90;999.90;;;23.40;49.10;;;;;;5031481;28;20256;-46
2021/05/24 11:44:36;;;;;;;1999.90;999.90;;;23.50;49.50;;;;;;5031510;28;20244;-46
2021/05/24 11:47:09;;;;;;;1999.90;999.90;;;23.60;48.40;;;;;;5031396;28;20565;-44
2021/05/24 11:49:38;;;;;;;1999.90;999.90;;;23.50;47.90;;;;;;5031402;28;20550;-53
2021/05/24 11:52:10;;;;;;;1999.90;999.90;;;23.60;49.00;;;;;;5031462;28;20202;-48
2021/05/24 11:54:38;;;;;;;1999.90;999.90;;;23.60;48.30;;;;;;5031345;28;20155;-41
2021/05/24 11:57:08;;;;;;;1999.90;999.90;;;23.60;47.80;;;;;;5031213;28;20202;-44
2021/05/24 11:59:35;;;;;;;1999.90;999.90;;;23.40;49.60;;;;;;5031379;28;20581;-43
2021/05/24 12:02:04;;;;;;;1999.90;999.90;;;23.30;51.30;;;;;;5031117;28;20196;-46
2021/05/24 12:04:38;;;;;;;1999.90;999.90;;;23.40;52.70;;;;;;5034496;28;20165;-46
2021/05/24 12:07:22;;;;;;;1999.90;999.90;;;23.30;54.40;;;;;;5035094;28;20198;-54
2021/05/24 12:09:50;;;;;;;1999.90;999.90;;;23.10;56.20;;;;;;5034899;28;20692;-43
2021/05/24 12:12:19;;;;;;;1999.90;999.90;;;22.90;56.90;;;;;;5034804;28;20174;-40
2021/05/24 12:14:57;;;;;;;1999.90;999.90;;;23.00;57.90;;;;;;5033450;28;20173;-44
2021/05/24 12:17:30;;;;;;;1999.90;999.90;;;22.90;58.50;;;;;;5030632;28;20229;-41
2021/05/24 12:19:58;;;;;;;1999.90;999.90;;;22.80;58.60;;;;;;5034839;28;20169;-43
2021/05/24 12:22:28;;;;;;;1999.90;999.90;;;22.60;60.90;;;;;;5034607;28;20572;-45